sensor_id;sensor_type;location;lat;lon;timestamp;P1;durP1;ratioP1;P2;durP2;ratioP2
64667;SDS011;51077;42.716;23.344;2023-03-14T00:01:00;10.93;;;6.50;;
64667;SDS011;51077;42.716;23.344;2023-03-14T00:03:33;11.15;;;6.90;;
64667;SDS011;51077;42.716;23.344;2023-03-14T00:06:01;12.00;;;6.67;;
64667;SDS011;51077;42.716;23.344;2023-03-14T00:08:30;11.07;;;6.85;;
64667;SDS011;51077;42.716;23.344;2023-03-14T00:10:55;11.37;;;7.20;;
64667;SDS011;51077;42.716;23.344;2023-03-14T00:13:23;14.40;;;7.50;;
64667;SDS011;51077;42.716;23.344;2023-03-14T00:15:48;10.95;;;6.93;;
64667;SDS011;51077;42.716;23.344;2023-03-14T00:18:14;10.57;;;6.53;;
64667;SDS011;51077;42.716;23.344;2023-03-14T00:20:39;10.83;;;6.23;;
64667;SDS011;51077;42.716;23.344;2023-03-14T00:23:04;9.70;;;6.53;;
64667;SDS011;51077;42.716;23.344;2023-03-14T00:25:30;10.63;;;5.90;;
64667;SDS011;51077;42.716;23.344;2023-03-14T00:27:55;8.33;;;6.07;;
64667;SDS011;51077;42.716;23.344;2023-03-14T00:30:20;9.73;;;5.40;;
64667;SDS011;51077;42.716;23.344;2023-03-14T00:32:46;11.50;;;5.83;;
64667;SDS011;51077;42.716;23.344;2023-03-14T00:35:12;9.10;;;4.73;;
64667;SDS011;51077;42.716;23.344;2023-03-14T00:37:37;8.33;;;5.33;;
64667;SDS011;51077;42.716;23.344;2023-03-14T00:40:03;7.87;;;4.53;;
64667;SDS011;51077;42.716;23.344;2023-03-14T00:42:31;7.82;;;4.38;;
64667;SDS011;51077;42.716;23.344;2023-03-14T00:44:57;9.20;;;4.80;;
64667;SDS011;51077;42.716;23.344;2023-03-14T00:47:22;7.80;;;4.73;;
64667;SDS011;51077;42.716;23.344;2023-03-14T00:49:47;6.77;;;4.27;;
64667;SDS011;51077;42.716;23.344;2023-03-14T00:52:13;8.87;;;4.53;;
64667;SDS011;51077;42.716;23.344;2023-03-14T00:54:38;7.93;;;4.13;;
64667;SDS011;51077;42.716;23.344;2023-03-14T00:57:04;9.10;;;5.07;;
64667;SDS011;51077;42.716;23.344;2023-03-14T00:59:29;9.00;;;4.43;;
64667;SDS011;51077;42.716;23.344;2023-03-14T01:01:54;8.43;;;4.40;;
64667;SDS011;51077;42.716;23.344;2023-03-14T01:04:20;8.43;;;4.90;;
64667;SDS011;51077;42.716;23.344;2023-03-14T01:06:45;9.13;;;4.97;;
64667;SDS011;51077;42.716;23.344;2023-03-14T01:09:10;9.27;;;4.57;;
64667;SDS011;51077;42.716;23.344;2023-03-14T01:11:36;10.13;;;4.80;;
64667;SDS011;51077;42.716;23.344;2023-03-14T01:14:02;9.77;;;4.53;;
64667;SDS011;51077;42.716;23.344;2023-03-14T01:16:29;9.48;;;4.95;;
64667;SDS011;51077;42.716;23.344;2023-03-14T01:18:56;6.25;;;4.40;;
64667;SDS011;51077;42.716;23.344;2023-03-14T01:21:23;8.70;;;4.90;;
64667;SDS011;51077;42.716;23.344;2023-03-14T01:23:53;9.27;;;4.65;;
64667;SDS011;51077;42.716;23.344;2023-03-14T01:26:21;8.13;;;4.80;;
64667;SDS011;51077;42.716;23.344;2023-03-14T01:28:49;7.97;;;4.30;;
64667;SDS011;51077;42.716;23.344;2023-03-14T01:31:15;7.63;;;4.65;;
64667;SDS011;51077;42.716;23.344;2023-03-14T01:33:41;8.93;;;5.05;;
64667;SDS011;51077;42.716;23.344;2023-03-14T01:36:07;9.40;;;5.10;;
64667;SDS011;51077;42.716;23.344;2023-03-14T01:38:33;7.28;;;4.57;;
64667;SDS011;51077;42.716;23.344;2023-03-14T01:41:00;8.27;;;4.70;;
64667;SDS011;51077;42.716;23.344;2023-03-14T01:43:27;8.15;;;4.97;;
64667;SDS011;51077;42.716;23.344;2023-03-14T01:51:31;7.38;;;4.20;;
64667;SDS011;51077;42.716;23.344;2023-03-14T01:56:31;7.45;;;4.50;;
64667;SDS011;51077;42.716;23.344;2023-03-14T01:58:57;7.67;;;4.97;;
64667;SDS011;51077;42.716;23.344;2023-03-14T02:01:24;13.30;;;6.82;;
64667;SDS011;51077;42.716;23.344;2023-03-14T02:03:56;14.40;;;7.93;;
64667;SDS011;51077;42.716;23.344;2023-03-14T02:06:27;11.10;;;6.15;;
64667;SDS011;51077;42.716;23.344;2023-03-14T02:08:59;10.68;;;5.95;;
64667;SDS011;51077;42.716;23.344;2023-03-14T02:11:26;10.57;;;5.72;;
64667;SDS011;51077;42.716;23.344;2023-03-14T02:13:54;7.93;;;5.20;;
64667;SDS011;51077;42.716;23.344;2023-03-14T02:16:21;8.20;;;5.07;;
64667;SDS011;51077;42.716;23.344;2023-03-14T02:18:47;10.27;;;5.17;;
64667;SDS011;51077;42.716;23.344;2023-03-14T02:29:29;11.95;;;6.30;;
64667;SDS011;51077;42.716;23.344;2023-03-14T02:31:57;12.55;;;7.13;;
64667;SDS011;51077;42.716;23.344;2023-03-14T02:34:23;11.03;;;5.80;;
64667;SDS011;51077;42.716;23.344;2023-03-14T02:36:50;12.15;;;6.70;;
64667;SDS011;51077;42.716;23.344;2023-03-14T02:39:58;13.43;;;6.90;;
64667;SDS011;51077;42.716;23.344;2023-03-14T02:42:06;12.82;;;6.65;;
64667;SDS011;51077;42.716;23.344;2023-03-14T02:44:32;11.77;;;6.47;;
64667;SDS011;51077;42.716;23.344;2023-03-14T02:46:58;14.10;;;6.80;;
64667;SDS011;51077;42.716;23.344;2023-03-14T02:49:23;12.67;;;7.03;;
64667;SDS011;51077;42.716;23.344;2023-03-14T02:51:50;10.85;;;6.47;;
64667;SDS011;51077;42.716;23.344;2023-03-14T02:54:16;12.10;;;7.27;;
64667;SDS011;51077;42.716;23.344;2023-03-14T02:56:44;13.40;;;6.65;;
64667;SDS011;51077;42.716;23.344;2023-03-14T02:59:09;13.00;;;6.77;;
64667;SDS011;51077;42.716;23.344;2023-03-14T03:01:35;13.50;;;6.53;;
64667;SDS011;51077;42.716;23.344;2023-03-14T03:04:00;11.77;;;6.50;;
64667;SDS011;51077;42.716;23.344;2023-03-14T03:06:25;14.87;;;7.20;;
64667;SDS011;51077;42.716;23.344;2023-03-14T03:08:51;14.53;;;6.97;;
64667;SDS011;51077;42.716;23.344;2023-03-14T03:11:17;14.35;;;6.85;;
64667;SDS011;51077;42.716;23.344;2023-03-14T03:13:42;15.47;;;8.07;;
64667;SDS011;51077;42.716;23.344;2023-03-14T03:16:08;13.27;;;6.77;;
64667;SDS011;51077;42.716;23.344;2023-03-14T03:18:33;13.17;;;7.63;;
64667;SDS011;51077;42.716;23.344;2023-03-14T03:20:59;13.00;;;7.53;;
64667;SDS011;51077;42.716;23.344;2023-03-14T03:23:26;14.45;;;7.57;;
64667;SDS011;51077;42.716;23.344;2023-03-14T03:25:51;14.63;;;7.87;;
64667;SDS011;51077;42.716;23.344;2023-03-14T03:28:17;13.40;;;6.73;;
64667;SDS011;51077;42.716;23.344;2023-03-14T03:30:43;13.52;;;8.18;;
64667;SDS011;51077;42.716;23.344;2023-03-14T03:33:09;16.77;;;9.85;;
64667;SDS011;51077;42.716;23.344;2023-03-14T03:35:41;16.08;;;8.98;;
64667;SDS011;51077;42.716;23.344;2023-03-14T03:40:36;17.27;;;9.10;;
64667;SDS011;51077;42.716;23.344;2023-03-14T03:43:02;14.13;;;9.30;;
64667;SDS011;51077;42.716;23.344;2023-03-14T03:45:28;14.77;;;9.02;;
64667;SDS011;51077;42.716;23.344;2023-03-14T03:47:54;15.70;;;8.83;;
64667;SDS011;51077;42.716;23.344;2023-03-14T03:50:19;16.37;;;10.07;;
64667;SDS011;51077;42.716;23.344;2023-03-14T03:52:45;21.43;;;11.43;;
64667;SDS011;51077;42.716;23.344;2023-03-14T03:55:10;19.97;;;10.73;;
64667;SDS011;51077;42.716;23.344;2023-03-14T03:57:35;15.57;;;9.63;;
64667;SDS011;51077;42.716;23.344;2023-03-14T04:00:01;18.40;;;10.43;;
64667;SDS011;51077;42.716;23.344;2023-03-14T04:02:26;18.33;;;9.37;;
64667;SDS011;51077;42.716;23.344;2023-03-14T04:04:51;18.77;;;10.67;;
64667;SDS011;51077;42.716;23.344;2023-03-14T04:07:17;17.43;;;9.43;;
64667;SDS011;51077;42.716;23.344;2023-03-14T04:09:42;16.13;;;9.77;;
64667;SDS011;51077;42.716;23.344;2023-03-14T04:12:08;18.60;;;9.70;;
64667;SDS011;51077;42.716;23.344;2023-03-14T04:14:33;17.60;;;9.90;;
64667;SDS011;51077;42.716;23.344;2023-03-14T04:16:58;16.30;;;10.63;;
64667;SDS011;51077;42.716;23.344;2023-03-14T04:19:24;17.47;;;9.77;;
64667;SDS011;51077;42.716;23.344;2023-03-14T04:21:49;19.30;;;11.23;;
64667;SDS011;51077;42.716;23.344;2023-03-14T04:24:14;17.63;;;10.10;;
64667;SDS011;51077;42.716;23.344;2023-03-14T04:26:40;16.10;;;9.53;;
64667;SDS011;51077;42.716;23.344;2023-03-14T04:29:05;20.47;;;11.20;;
64667;SDS011;51077;42.716;23.344;2023-03-14T04:31:30;18.17;;;11.27;;
64667;SDS011;51077;42.716;23.344;2023-03-14T04:33:56;20.20;;;11.50;;
64667;SDS011;51077;42.716;23.344;2023-03-14T04:36:21;17.67;;;9.93;;
64667;SDS011;51077;42.716;23.344;2023-03-14T04:38:46;16.03;;;10.00;;
64667;SDS011;51077;42.716;23.344;2023-03-14T04:41:12;14.50;;;9.90;;
64667;SDS011;51077;42.716;23.344;2023-03-14T04:43:37;17.47;;;10.37;;
64667;SDS011;51077;42.716;23.344;2023-03-14T04:46:03;17.73;;;10.70;;
64667;SDS011;51077;42.716;23.344;2023-03-14T04:48:28;16.43;;;9.67;;
64667;SDS011;51077;42.716;23.344;2023-03-14T04:50:54;19.93;;;10.97;;
64667;SDS011;51077;42.716;23.344;2023-03-14T04:53:19;19.87;;;11.67;;
64667;SDS011;51077;42.716;23.344;2023-03-14T04:55:52;25.53;;;14.20;;
64667;SDS011;51077;42.716;23.344;2023-03-14T04:58:20;24.17;;;13.38;;
64667;SDS011;51077;42.716;23.344;2023-03-14T05:00:46;22.38;;;12.52;;
64667;SDS011;51077;42.716;23.344;2023-03-14T05:03:11;22.63;;;12.00;;
64667;SDS011;51077;42.716;23.344;2023-03-14T05:05:37;23.00;;;12.87;;
64667;SDS011;51077;42.716;23.344;2023-03-14T05:08:02;22.13;;;11.47;;
64667;SDS011;51077;42.716;23.344;2023-03-14T05:10:28;23.40;;;12.17;;
64667;SDS011;51077;42.716;23.344;2023-03-14T05:12:53;18.87;;;12.83;;
64667;SDS011;51077;42.716;23.344;2023-03-14T05:15:18;19.43;;;12.00;;
64667;SDS011;51077;42.716;23.344;2023-03-14T05:17:44;23.20;;;12.40;;
64667;SDS011;51077;42.716;23.344;2023-03-14T05:20:10;18.13;;;11.50;;
64667;SDS011;51077;42.716;23.344;2023-03-14T05:22:39;20.50;;;11.43;;
64667;SDS011;51077;42.716;23.344;2023-03-14T05:25:05;19.20;;;11.63;;
64667;SDS011;51077;42.716;23.344;2023-03-14T05:27:31;22.50;;;12.25;;
64667;SDS011;51077;42.716;23.344;2023-03-14T05:29:56;21.47;;;12.40;;
64667;SDS011;51077;42.716;23.344;2023-03-14T05:32:22;21.63;;;12.00;;
64667;SDS011;51077;42.716;23.344;2023-03-14T05:34:47;21.23;;;11.77;;
64667;SDS011;51077;42.716;23.344;2023-03-14T05:37:12;18.67;;;11.80;;
64667;SDS011;51077;42.716;23.344;2023-03-14T05:39:38;20.40;;;11.17;;
64667;SDS011;51077;42.716;23.344;2023-03-14T05:42:03;19.30;;;12.13;;
64667;SDS011;51077;42.716;23.344;2023-03-14T05:44:29;22.17;;;12.10;;
64667;SDS011;51077;42.716;23.344;2023-03-14T05:46:54;22.20;;;11.27;;
64667;SDS011;51077;42.716;23.344;2023-03-14T05:49:19;20.57;;;11.60;;
64667;SDS011;51077;42.716;23.344;2023-03-14T05:51:45;22.07;;;11.77;;
64667;SDS011;51077;42.716;23.344;2023-03-14T05:54:10;17.50;;;11.13;;
64667;SDS011;51077;42.716;23.344;2023-03-14T05:56:36;19.10;;;10.40;;
64667;SDS011;51077;42.716;23.344;2023-03-14T05:59:01;19.20;;;10.50;;
64667;SDS011;51077;42.716;23.344;2023-03-14T06:01:28;19.38;;;10.85;;
64667;SDS011;51077;42.716;23.344;2023-03-14T06:03:54;18.75;;;11.30;;
64667;SDS011;51077;42.716;23.344;2023-03-14T06:06:19;20.50;;;10.93;;
64667;SDS011;51077;42.716;23.344;2023-03-14T06:08:45;22.57;;;12.03;;
64667;SDS011;51077;42.716;23.344;2023-03-14T06:11:10;40.07;;;19.87;;
64667;SDS011;51077;42.716;23.344;2023-03-14T06:13:35;51.77;;;25.57;;
64667;SDS011;51077;42.716;23.344;2023-03-14T06:16:01;46.07;;;24.13;;
64667;SDS011;51077;42.716;23.344;2023-03-14T06:18:26;43.97;;;23.87;;
64667;SDS011;51077;42.716;23.344;2023-03-14T06:20:55;39.90;;;22.60;;
64667;SDS011;51077;42.716;23.344;2023-03-14T06:23:21;39.50;;;22.00;;
64667;SDS011;51077;42.716;23.344;2023-03-14T06:25:47;41.75;;;21.75;;
64667;SDS011;51077;42.716;23.344;2023-03-14T06:28:13;35.33;;;19.33;;
64667;SDS011;51077;42.716;23.344;2023-03-14T06:30:39;33.97;;;20.00;;
64667;SDS011;51077;42.716;23.344;2023-03-14T06:33:04;31.27;;;19.97;;
64667;SDS011;51077;42.716;23.344;2023-03-14T06:35:29;36.60;;;19.93;;
64667;SDS011;51077;42.716;23.344;2023-03-14T06:37:55;32.33;;;17.80;;
64667;SDS011;51077;42.716;23.344;2023-03-14T06:40:20;27.73;;;16.87;;
64667;SDS011;51077;42.716;23.344;2023-03-14T06:42:46;32.10;;;18.17;;
64667;SDS011;51077;42.716;23.344;2023-03-14T06:45:12;27.60;;;16.25;;
64667;SDS011;51077;42.716;23.344;2023-03-14T06:47:38;28.70;;;16.13;;
64667;SDS011;51077;42.716;23.344;2023-03-14T06:50:04;27.73;;;16.03;;
64667;SDS011;51077;42.716;23.344;2023-03-14T06:52:31;29.25;;;15.65;;
64667;SDS011;51077;42.716;23.344;2023-03-14T06:54:56;29.10;;;15.73;;
64667;SDS011;51077;42.716;23.344;2023-03-14T06:57:22;28.13;;;15.43;;
64667;SDS011;51077;42.716;23.344;2023-03-14T06:59:47;28.27;;;15.57;;
64667;SDS011;51077;42.716;23.344;2023-03-14T07:02:13;23.73;;;14.43;;
64667;SDS011;51077;42.716;23.344;2023-03-14T07:04:38;22.87;;;14.17;;
64667;SDS011;51077;42.716;23.344;2023-03-14T07:07:04;26.43;;;14.03;;
64667;SDS011;51077;42.716;23.344;2023-03-14T07:09:30;24.83;;;14.35;;
64667;SDS011;51077;42.716;23.344;2023-03-14T07:11:56;22.43;;;12.90;;
64667;SDS011;51077;42.716;23.344;2023-03-14T07:14:21;26.60;;;13.67;;
64667;SDS011;51077;42.716;23.344;2023-03-14T07:16:47;21.40;;;12.43;;
64667;SDS011;51077;42.716;23.344;2023-03-14T07:19:12;21.07;;;12.50;;
64667;SDS011;51077;42.716;23.344;2023-03-14T07:21:37;23.60;;;11.97;;
64667;SDS011;51077;42.716;23.344;2023-03-14T07:24:03;23.90;;;12.17;;
64667;SDS011;51077;42.716;23.344;2023-03-14T07:26:28;18.27;;;11.83;;
64667;SDS011;51077;42.716;23.344;2023-03-14T07:28:54;18.43;;;11.17;;
64667;SDS011;51077;42.716;23.344;2023-03-14T07:31:19;16.13;;;10.67;;
64667;SDS011;51077;42.716;23.344;2023-03-14T07:33:45;19.77;;;11.17;;
64667;SDS011;51077;42.716;23.344;2023-03-14T07:36:10;17.23;;;10.03;;
64667;SDS011;51077;42.716;23.344;2023-03-14T07:38:35;15.40;;;9.70;;
64667;SDS011;51077;42.716;23.344;2023-03-14T07:41:01;16.10;;;9.90;;
64667;SDS011;51077;42.716;23.344;2023-03-14T07:43:28;99.78;;;13.82;;
64667;SDS011;51077;42.716;23.344;2023-03-14T07:45:54;257.87;;;22.63;;
64667;SDS011;51077;42.716;23.344;2023-03-14T07:48:19;173.33;;;18.70;;
64667;SDS011;51077;42.716;23.344;2023-03-14T07:50:49;139.70;;;17.23;;
64667;SDS011;51077;42.716;23.344;2023-03-14T07:53:16;121.57;;;14.55;;
64667;SDS011;51077;42.716;23.344;2023-03-14T07:55:41;103.87;;;16.30;;
64667;SDS011;51077;42.716;23.344;2023-03-14T07:58:07;102.47;;;14.30;;
64667;SDS011;51077;42.716;23.344;2023-03-14T08:00:32;64.60;;;11.43;;
64667;SDS011;51077;42.716;23.344;2023-03-14T08:02:57;79.67;;;11.47;;
64667;SDS011;51077;42.716;23.344;2023-03-14T08:05:23;61.83;;;10.60;;
64667;SDS011;51077;42.716;23.344;2023-03-14T08:07:48;58.67;;;10.10;;
64667;SDS011;51077;42.716;23.344;2023-03-14T08:10:14;45.10;;;9.83;;
64667;SDS011;51077;42.716;23.344;2023-03-14T08:12:46;36.42;;;7.82;;
64667;SDS011;51077;42.716;23.344;2023-03-14T08:15:11;36.37;;;7.77;;
64667;SDS011;51077;42.716;23.344;2023-03-14T08:17:37;40.83;;;8.37;;
64667;SDS011;51077;42.716;23.344;2023-03-14T08:20:02;32.53;;;8.20;;
64667;SDS011;51077;42.716;23.344;2023-03-14T08:22:31;30.02;;;7.60;;
64667;SDS011;51077;42.716;23.344;2023-03-14T08:24:57;26.47;;;7.70;;
64667;SDS011;51077;42.716;23.344;2023-03-14T08:27:22;31.20;;;7.67;;
64667;SDS011;51077;42.716;23.344;2023-03-14T08:29:47;29.70;;;7.20;;
64667;SDS011;51077;42.716;23.344;2023-03-14T08:32:13;24.60;;;6.23;;
64667;SDS011;51077;42.716;23.344;2023-03-14T08:34:38;22.30;;;6.10;;
64667;SDS011;51077;42.716;23.344;2023-03-14T08:37:05;21.50;;;6.10;;
64667;SDS011;51077;42.716;23.344;2023-03-14T08:39:30;17.75;;;6.10;;
64667;SDS011;51077;42.716;23.344;2023-03-14T08:41:56;14.87;;;5.73;;
64667;SDS011;51077;42.716;23.344;2023-03-14T08:44:21;12.57;;;6.07;;
64667;SDS011;51077;42.716;23.344;2023-03-14T08:46:46;16.50;;;5.17;;
64667;SDS011;51077;42.716;23.344;2023-03-14T08:49:12;23.17;;;5.70;;
64667;SDS011;51077;42.716;23.344;2023-03-14T08:51:39;11.45;;;4.32;;
64667;SDS011;51077;42.716;23.344;2023-03-14T08:54:04;14.83;;;4.80;;
64667;SDS011;51077;42.716;23.344;2023-03-14T08:56:30;11.20;;;4.27;;
64667;SDS011;51077;42.716;23.344;2023-03-14T08:58:55;11.73;;;4.50;;
64667;SDS011;51077;42.716;23.344;2023-03-14T09:01:20;10.30;;;4.20;;
64667;SDS011;51077;42.716;23.344;2023-03-14T09:03:49;11.93;;;4.03;;
64667;SDS011;51077;42.716;23.344;2023-03-14T09:06:14;8.17;;;4.17;;
64667;SDS011;51077;42.716;23.344;2023-03-14T09:08:43;7.60;;;4.40;;
64667;SDS011;51077;42.716;23.344;2023-03-14T09:11:08;10.97;;;4.30;;
64667;SDS011;51077;42.716;23.344;2023-03-14T09:13:34;9.03;;;3.67;;
64667;SDS011;51077;42.716;23.344;2023-03-14T09:16:00;10.30;;;4.10;;
64667;SDS011;51077;42.716;23.344;2023-03-14T09:18:26;8.60;;;3.60;;
64667;SDS011;51077;42.716;23.344;2023-03-14T09:20:51;8.00;;;3.50;;
64667;SDS011;51077;42.716;23.344;2023-03-14T09:23:16;9.03;;;4.00;;
64667;SDS011;51077;42.716;23.344;2023-03-14T09:25:42;10.00;;;3.87;;
64667;SDS011;51077;42.716;23.344;2023-03-14T09:28:07;7.00;;;3.40;;
64667;SDS011;51077;42.716;23.344;2023-03-14T09:30:33;6.40;;;4.17;;
64667;SDS011;51077;42.716;23.344;2023-03-14T09:32:58;5.97;;;3.50;;
64667;SDS011;51077;42.716;23.344;2023-03-14T09:35:24;6.50;;;3.43;;
64667;SDS011;51077;42.716;23.344;2023-03-14T09:37:49;6.93;;;3.53;;
64667;SDS011;51077;42.716;23.344;2023-03-14T09:40:15;5.60;;;3.40;;
64667;SDS011;51077;42.716;23.344;2023-03-14T09:42:42;6.28;;;3.60;;
64667;SDS011;51077;42.716;23.344;2023-03-14T09:45:20;5.30;;;3.57;;
64667;SDS011;51077;42.716;23.344;2023-03-14T09:47:50;9.50;;;4.03;;
64667;SDS011;51077;42.716;23.344;2023-03-14T09:50:17;5.43;;;3.65;;
64667;SDS011;51077;42.716;23.344;2023-03-14T09:52:44;6.87;;;3.87;;
64667;SDS011;51077;42.716;23.344;2023-03-14T09:55:19;5.53;;;3.70;;
64667;SDS011;51077;42.716;23.344;2023-03-14T09:57:46;6.32;;;3.72;;
64667;SDS011;51077;42.716;23.344;2023-03-14T10:00:17;9.63;;;3.80;;
64667;SDS011;51077;42.716;23.344;2023-03-14T10:02:55;6.25;;;3.40;;
64667;SDS011;51077;42.716;23.344;2023-03-14T10:05:25;4.20;;;3.17;;
64667;SDS011;51077;42.716;23.344;2023-03-14T10:07:51;7.07;;;3.33;;
64667;SDS011;51077;42.716;23.344;2023-03-14T10:10:20;5.90;;;3.43;;
64667;SDS011;51077;42.716;23.344;2023-03-14T10:12:52;8.32;;;3.30;;
64667;SDS011;51077;42.716;23.344;2023-03-14T10:15:38;7.22;;;3.33;;
64667;SDS011;51077;42.716;23.344;2023-03-14T10:18:04;6.25;;;3.45;;
64667;SDS011;51077;42.716;23.344;2023-03-14T10:20:38;7.20;;;3.40;;
64667;SDS011;51077;42.716;23.344;2023-03-14T10:26:00;4.53;;;3.40;;
64667;SDS011;51077;42.716;23.344;2023-03-14T10:28:26;7.22;;;4.03;;
64667;SDS011;51077;42.716;23.344;2023-03-14T10:30:54;4.68;;;2.95;;
64667;SDS011;51077;42.716;23.344;2023-03-14T10:33:20;7.00;;;3.20;;
64667;SDS011;51077;42.716;23.344;2023-03-14T10:35:58;3.95;;;2.95;;
64667;SDS011;51077;42.716;23.344;2023-03-14T10:38:27;5.55;;;3.42;;
64667;SDS011;51077;42.716;23.344;2023-03-14T10:40:56;15.88;;;7.72;;
64667;SDS011;51077;42.716;23.344;2023-03-14T10:43:27;13.02;;;5.60;;
64667;SDS011;51077;42.716;23.344;2023-03-14T10:46:04;7.07;;;4.57;;
64667;SDS011;51077;42.716;23.344;2023-03-14T10:48:37;8.02;;;4.03;;
64667;SDS011;51077;42.716;23.344;2023-03-14T10:53:38;8.07;;;4.25;;
64667;SDS011;51077;42.716;23.344;2023-03-14T10:56:19;9.52;;;4.55;;
64667;SDS011;51077;42.716;23.344;2023-03-14T10:58:47;7.38;;;4.20;;
64667;SDS011;51077;42.716;23.344;2023-03-14T11:03:57;5.38;;;3.83;;
64667;SDS011;51077;42.716;23.344;2023-03-14T11:09:36;5.07;;;2.75;;
64667;SDS011;51077;42.716;23.344;2023-03-14T11:15:09;3.70;;;2.53;;
64667;SDS011;51077;42.716;23.344;2023-03-14T11:20:45;5.63;;;3.53;;
64667;SDS011;51077;42.716;23.344;2023-03-14T11:23:21;5.85;;;2.83;;
64667;SDS011;51077;42.716;23.344;2023-03-14T11:28:58;5.75;;;3.67;;
64667;SDS011;51077;42.716;23.344;2023-03-14T11:31:33;5.70;;;2.92;;
64667;SDS011;51077;42.716;23.344;2023-03-14T11:40:40;7.20;;;3.05;;
64667;SDS011;51077;42.716;23.344;2023-03-14T11:45:49;9.45;;;3.17;;
64667;SDS011;51077;42.716;23.344;2023-03-14T11:51:04;6.07;;;2.78;;
64667;SDS011;51077;42.716;23.344;2023-03-14T11:56:54;5.60;;;2.60;;
64667;SDS011;51077;42.716;23.344;2023-03-14T11:59:24;4.03;;;2.25;;
64667;SDS011;51077;42.716;23.344;2023-03-14T12:02:19;6.10;;;2.70;;
64667;SDS011;51077;42.716;23.344;2023-03-14T12:05:39;4.90;;;2.42;;
64667;SDS011;51077;42.716;23.344;2023-03-14T12:10:15;5.80;;;2.60;;
64667;SDS011;51077;42.716;23.344;2023-03-14T12:12:40;5.00;;;2.20;;
64667;SDS011;51077;42.716;23.344;2023-03-14T12:15:15;3.92;;;2.30;;
64667;SDS011;51077;42.716;23.344;2023-03-14T12:17:44;5.68;;;2.25;;
64667;SDS011;51077;42.716;23.344;2023-03-14T12:22:43;3.55;;;2.03;;
64667;SDS011;51077;42.716;23.344;2023-03-14T12:35:42;4.63;;;2.00;;
64667;SDS011;51077;42.716;23.344;2023-03-14T12:48:49;4.10;;;1.75;;
64667;SDS011;51077;42.716;23.344;2023-03-14T12:51:20;5.43;;;1.90;;
64667;SDS011;51077;42.716;23.344;2023-03-14T13:00:17;3.33;;;1.40;;
64667;SDS011;51077;42.716;23.344;2023-03-14T13:02:26;4.78;;;1.90;;
64667;SDS011;51077;42.716;23.344;2023-03-14T13:05:23;3.95;;;1.70;;
64667;SDS011;51077;42.716;23.344;2023-03-14T13:10:19;4.37;;;1.80;;
64667;SDS011;51077;42.716;23.344;2023-03-14T13:18:26;4.60;;;1.75;;
64667;SDS011;51077;42.716;23.344;2023-03-14T13:21:40;3.75;;;1.60;;
64667;SDS011;51077;42.716;23.344;2023-03-14T13:24:04;4.10;;;1.67;;
64667;SDS011;51077;42.716;23.344;2023-03-14T13:26:45;3.00;;;1.77;;
64667;SDS011;51077;42.716;23.344;2023-03-14T13:29:21;4.30;;;1.37;;
64667;SDS011;51077;42.716;23.344;2023-03-14T13:31:50;3.33;;;1.80;;
64667;SDS011;51077;42.716;23.344;2023-03-14T13:34:17;6.03;;;1.50;;
64667;SDS011;51077;42.716;23.344;2023-03-14T13:36:43;4.90;;;1.60;;
64667;SDS011;51077;42.716;23.344;2023-03-14T13:39:10;3.87;;;1.50;;
64667;SDS011;51077;42.716;23.344;2023-03-14T13:41:39;2.38;;;1.38;;
64667;SDS011;51077;42.716;23.344;2023-03-14T13:44:07;3.13;;;1.52;;
64667;SDS011;51077;42.716;23.344;2023-03-14T13:46:39;3.65;;;1.52;;
64667;SDS011;51077;42.716;23.344;2023-03-14T13:49:05;3.40;;;1.10;;
64667;SDS011;51077;42.716;23.344;2023-03-14T13:51:34;3.30;;;1.85;;
64667;SDS011;51077;42.716;23.344;2023-03-14T13:54:11;5.78;;;1.30;;
64667;SDS011;51077;42.716;23.344;2023-03-14T13:56:42;4.90;;;1.67;;
64667;SDS011;51077;42.716;23.344;2023-03-14T13:59:27;4.80;;;1.50;;
64667;SDS011;51077;42.716;23.344;2023-03-14T14:01:54;3.13;;;1.30;;
64667;SDS011;51077;42.716;23.344;2023-03-14T14:04:22;4.15;;;1.80;;
64667;SDS011;51077;42.716;23.344;2023-03-14T14:06:55;4.25;;;1.52;;
64667;SDS011;51077;42.716;23.344;2023-03-14T14:09:28;5.00;;;2.17;;
64667;SDS011;51077;42.716;23.344;2023-03-14T14:12:01;5.88;;;2.42;;
64667;SDS011;51077;42.716;23.344;2023-03-14T14:16:58;4.23;;;1.90;;
64667;SDS011;51077;42.716;23.344;2023-03-14T14:19:26;3.92;;;1.67;;
64667;SDS011;51077;42.716;23.344;2023-03-14T14:21:55;4.20;;;1.90;;
64667;SDS011;51077;42.716;23.344;2023-03-14T14:24:22;6.45;;;1.83;;
64667;SDS011;51077;42.716;23.344;2023-03-14T14:26:53;7.47;;;2.42;;
64667;SDS011;51077;42.716;23.344;2023-03-14T14:32:03;6.78;;;2.08;;
64667;SDS011;51077;42.716;23.344;2023-03-14T14:34:41;4.75;;;2.00;;
64667;SDS011;51077;42.716;23.344;2023-03-14T14:37:24;5.88;;;2.25;;
64667;SDS011;51077;42.716;23.344;2023-03-14T14:39:52;9.00;;;2.45;;
64667;SDS011;51077;42.716;23.344;2023-03-14T14:42:20;8.13;;;2.72;;
64667;SDS011;51077;42.716;23.344;2023-03-14T14:44:49;4.85;;;2.47;;
64667;SDS011;51077;42.716;23.344;2023-03-14T14:47:18;6.03;;;1.90;;
64667;SDS011;51077;42.716;23.344;2023-03-14T14:49:46;9.07;;;2.80;;
64667;SDS011;51077;42.716;23.344;2023-03-14T14:52:14;4.95;;;2.20;;
64667;SDS011;51077;42.716;23.344;2023-03-14T14:57:20;6.50;;;2.67;;
64667;SDS011;51077;42.716;23.344;2023-03-14T14:59:49;6.28;;;2.75;;
64667;SDS011;51077;42.716;23.344;2023-03-14T15:02:25;8.43;;;2.90;;
64667;SDS011;51077;42.716;23.344;2023-03-14T15:05:00;4.63;;;2.65;;
64667;SDS011;51077;42.716;23.344;2023-03-14T15:07:26;6.13;;;2.70;;
64667;SDS011;51077;42.716;23.344;2023-03-14T15:09:51;8.83;;;2.70;;
64667;SDS011;51077;42.716;23.344;2023-03-14T15:12:17;8.30;;;2.50;;
64667;SDS011;51077;42.716;23.344;2023-03-14T15:14:42;6.27;;;2.43;;
64667;SDS011;51077;42.716;23.344;2023-03-14T15:17:10;5.30;;;2.53;;
64667;SDS011;51077;42.716;23.344;2023-03-14T15:19:36;4.65;;;2.38;;
64667;SDS011;51077;42.716;23.344;2023-03-14T15:22:04;6.88;;;2.63;;
64667;SDS011;51077;42.716;23.344;2023-03-14T15:24:33;3.95;;;2.88;;
64667;SDS011;51077;42.716;23.344;2023-03-14T15:26:58;7.60;;;3.13;;
64667;SDS011;51077;42.716;23.344;2023-03-14T15:29:24;5.60;;;2.83;;
64667;SDS011;51077;42.716;23.344;2023-03-14T15:31:49;7.73;;;3.80;;
64667;SDS011;51077;42.716;23.344;2023-03-14T15:34:15;5.30;;;3.27;;
64667;SDS011;51077;42.716;23.344;2023-03-14T15:36:41;8.07;;;3.33;;
64667;SDS011;51077;42.716;23.344;2023-03-14T15:39:07;8.37;;;3.10;;
64667;SDS011;51077;42.716;23.344;2023-03-14T15:41:34;5.28;;;2.85;;
64667;SDS011;51077;42.716;23.344;2023-03-14T15:44:00;6.33;;;3.50;;
64667;SDS011;51077;42.716;23.344;2023-03-14T15:46:25;7.50;;;3.00;;
64667;SDS011;51077;42.716;23.344;2023-03-14T15:48:51;7.73;;;3.20;;
64667;SDS011;51077;42.716;23.344;2023-03-14T15:51:17;5.37;;;2.43;;
64667;SDS011;51077;42.716;23.344;2023-03-14T15:53:43;9.07;;;3.08;;
64667;SDS011;51077;42.716;23.344;2023-03-14T15:56:15;6.25;;;2.72;;
64667;SDS011;51077;42.716;23.344;2023-03-14T15:58:43;5.90;;;3.00;;
64667;SDS011;51077;42.716;23.344;2023-03-14T16:01:11;8.82;;;3.50;;
64667;SDS011;51077;42.716;23.344;2023-03-14T16:03:37;6.93;;;3.20;;
64667;SDS011;51077;42.716;23.344;2023-03-14T16:06:03;6.20;;;3.37;;
64667;SDS011;51077;42.716;23.344;2023-03-14T16:08:29;7.25;;;3.78;;